Bryan, OH

6:39 PM EST on February 12, 2016 (GMT -0500)
APRSWXNET | | Change Station
CLOSE
Current Station
Personal Weather Station
Location: Bryan, OH
Elevation: 774 ft
Nearby Weather Stations

Elev 774 ft 41.46 °N, 84.57 °W | Updated 22 minutes ago

Snow
Snow
18 °F
Feels Like 7 °F
N
9
Wind Variable Wind from NW
Gusts 14.0 mph

Today
High -- | Low -- °F
--% Chance of Precip.
Yesterday
High -- | Low -- °F
Precip. -- in
Pressure 30.11 in
Visibility 10.0 miles
Clouds Few 1700 ft
Scattered Clouds 2700 ft
Windchill 7 °F
Dew Point 13 °F
Humidity 81%
Rainfall in
Snow Depth Not available.
7:37 AM 6:07 PM
Waxing Crescent, 24% visible
SPECI KDFI 122337Z AUTO 30013KT 10SM FEW017 SCT027 M08/M12 A3011 RMK AO2 SNB2258E30 P0000 T10781117
Pressure 30.11 in
Visibility 10.0 miles
Clouds Few 1700 ft
Scattered Clouds 2700 ft
Windchill 7 °F
Dew Point 13 °F
Humidity 81%
Rainfall in
Snow Depth Not available.
7:37 AM 6:07 PM
Waxing Crescent, 24% visible
SPECI KDFI 122337Z AUTO 30013KT 10SM FEW017 SCT027 M08/M12 A3011 RMK AO2 SNB2258E30 P0000 T10781117

10-Day Weather Forecast

Almanac

Astronomy

Feb. 12, 2016 Rise Set
Actual Time
Civil Twilight
Nautical Twilight
Astronomical Twilight
Moon
Length of Visible Light
Length of Day
Tomorrow will be .
, % of the Moon is Illuminated

Today's Extremes

State Highs State Lows

Community

WunderPhotos

Upload Photos

1,892,437 photos uploaded!

WunderBlog® & News

Nearby

Air Quality

  Air Quality AQ Index Pollutant
Not available.

Snow Depth

Station Depth Elevation

Earthquake Activity

City Distance Mag. Time & Date
Minimum magnitude displayed is 2.5.

Coastal Water Temperatures

Place Temperature

Stations

Nearby Weather Stations

Station Location Temp. Windchill Dew Point Humidity Wind Precip. Elev Updated Type
                   

Watches & Warnings

There are currently no watches in effect.